Capitol Logistics 451


KRFD
Chicago/Rockford International Airport
Rockford, Illinois, US
KMIA
Miami International Airport
Miami, Florida, US

Activity Log

Date Flight Route Aircraft Duration
01/13/2020 CPX207 BVT J89 ATL J45 OMN HILEY7 B763 2h 56m
12/31/2019 CPX451 OBK J89 IIU J99 IRQ J53 ORL V159 TRV B738 3h 00m
12/30/2019 CPX207 BVT J89 ATL J45 OMN HILEY7 B763 3h 24m
11/28/2019 CPX451 BVT J89 ATL J45 OMN HILEY7 B738 2h 47m
07/06/2019 CPX207 BVT J89 ATL J45 OMN HILEY7 B763 3h 10m
05/10/2019 CPX207 BVT J89 ATL J45 OMN HILEY7 B763 2h 50m
12/08/2018 CPX351 JOT LVT TAY SSCOT5 B752 2h 46m
11/29/2018 CPX351 JOT LVT TAY SSCOT4 B752 2h 52m

Route Details

Aircraft Information
Primary: Boeing 757-200SF
Backup: Boeing 737-800BCF
Route Data
Distance: 1160nm
Sched. Duration: 2h 50m
Avg. Duration: 2h 73m (+24m)
Times Flown: 8
Recm'd Route: BVT J89 ATL J45 OMN HILEY7
Planned Altitude: 36,000ft
Origin Wx: KRFD 262354Z 33008KT 10SM OVC044 M02/M10 A3015 RMK AO2 SLP219 60000 T10221100 11006 21022 51011
Dest. Wx: KMIA 262353Z 19016G23KT 6SM RA BR SCT013CB BKN041 OVC080 24/21 A2994 RMK AO2 SLP138 CB ALQDS MOV NE P0005 60008 T02390211 10300 20239 53014 $
Notes:

Financial History
Total Freight: 532,657lbs
Average Load: 66,582lbs/flt
Fuel Used: 417,221lbs
Avg. Fuel Used: 52,153lbs/flt
Fuel Expense: $304,867
Avg. Fuel Expense: $38,108
Avg. Fuel Cost: $0.72/lbs
Total Gross Income: $731,127
Pilot Pay: $972
Total Expenses: $79,378
Total Revenue: $343,200
Average Revenue: $91,390.84